createdAt,value
2023-05-09T00:01:34.029Z,43.91
2023-05-09T00:05:26.481Z,43.81
2023-05-09T00:09:35.884Z,43.76
2023-05-09T00:13:00.907Z,43.83
2023-05-09T00:16:52.918Z,43.78
2023-05-09T00:20:38.202Z,43.76
2023-05-09T00:24:10.420Z,43.74
2023-05-09T00:28:11.263Z,43.64
2023-05-09T00:32:20.854Z,43.61
2023-05-09T00:36:30.487Z,43.73
2023-05-09T00:40:40.007Z,43.77
2023-05-09T00:44:32.868Z,43.80
2023-05-09T00:48:17.286Z,43.82
2023-05-09T00:51:39.658Z,43.75
2023-05-09T00:55:28.468Z,43.72
2023-05-09T00:59:24.498Z,43.58
2023-05-09T01:03:34.078Z,43.51
2023-05-09T01:07:40.240Z,43.54
2023-05-09T01:12:11.856Z,43.60
2023-05-09T01:16:36.572Z,43.59
2023-05-09T01:20:28.237Z,43.58
2023-05-09T01:24:36.517Z,43.58
2023-05-09T01:28:38.710Z,43.60
2023-05-09T01:32:31.314Z,43.63
2023-05-09T01:36:31.858Z,43.67
2023-05-09T01:40:41.379Z,43.85
2023-05-09T01:44:43.411Z,43.92
2023-05-09T01:48:52.873Z,43.99
2023-05-09T01:53:05.352Z,44.04
2023-05-09T01:57:14.967Z,44.02
2023-05-09T02:01:17.449Z,44.07
2023-05-09T02:05:27.065Z,44.15
2023-05-09T02:09:29.627Z,44.20
2023-05-09T02:13:39.558Z,44.33
2023-05-09T02:17:41.672Z,44.36
2023-05-09T02:21:51.702Z,44.34
2023-05-09T02:26:01.309Z,44.42
2023-05-09T02:29:41.996Z,44.49
2023-05-09T02:33:51.479Z,44.56
2023-05-09T02:37:52.285Z,44.57
2023-05-09T02:41:42.045Z,44.63
2023-05-09T02:45:44.800Z,44.69
2023-05-09T02:49:32.377Z,44.74
2023-05-09T02:53:42.549Z,44.80
2023-05-09T02:57:44.055Z,44.84
2023-05-09T03:01:43.876Z,44.87
2023-05-09T03:05:53.563Z,44.91
2023-05-09T03:09:42.280Z,44.97
2023-05-09T03:13:20.909Z,45.03
2023-05-09T03:17:28.849Z,45.07
2023-05-09T03:21:20.105Z,45.16
2023-05-09T03:25:18.059Z,45.30
2023-05-09T03:29:28.084Z,45.36
2023-05-09T03:33:26.535Z,45.48
2023-05-09T03:37:36.096Z,45.93
2023-05-09T03:41:37.591Z,46.43
2023-05-09T03:45:30.928Z,46.86
2023-05-09T03:49:32.900Z,47.29
2023-05-09T03:53:35.476Z,47.67
2023-05-09T03:57:37.908Z,47.99
2023-05-09T04:01:47.175Z,47.98
2023-05-09T04:05:56.687Z,48.10
2023-05-09T04:10:04.764Z,48.13
2023-05-09T04:14:07.291Z,48.01
2023-05-09T04:18:08.031Z,47.96
2023-05-09T04:22:16.347Z,47.95
2023-05-09T04:26:20.292Z,47.87
2023-05-09T04:29:49.915Z,47.82
2023-05-09T04:33:53.674Z,47.84
2023-05-09T04:37:36.838Z,47.81
2023-05-09T04:41:09.427Z,47.81
2023-05-09T04:44:36.925Z,47.80
2023-05-09T04:48:46.535Z,47.80
2023-05-09T04:52:32.469Z,47.77
2023-05-09T04:56:17.915Z,47.86
2023-05-09T05:00:01.929Z,47.77
2023-05-09T05:03:42.647Z,47.62
2023-05-09T05:07:50.960Z,47.52
2023-05-09T05:11:37.521Z,47.43
2023-05-09T05:15:14.642Z,47.41
2023-05-09T05:18:29.288Z,47.36
2023-05-09T05:21:58.630Z,47.24
2023-05-09T05:25:25.129Z,47.36
2023-05-09T05:28:32.595Z,47.35
2023-05-09T05:32:11.086Z,47.60
2023-05-09T05:35:19.422Z,47.55
2023-05-09T05:38:39.342Z,47.49
2023-05-09T05:42:21.229Z,47.69
2023-05-09T05:45:22.617Z,47.67
2023-05-09T05:48:02.760Z,47.61
2023-05-09T05:51:24.814Z,47.54
2023-05-09T05:55:34.225Z,47.41
2023-05-09T05:59:26.576Z,47.41
2023-05-09T06:03:35.673Z,47.25
2023-05-09T06:07:38.847Z,46.89
2023-05-09T06:11:26.635Z,46.43
2023-05-09T06:15:05.959Z,45.97
2023-05-09T06:19:05.124Z,45.79
2023-05-09T06:23:14.710Z,45.66
2023-05-09T06:27:17.512Z,45.62
2023-05-09T06:31:19.581Z,45.58
2023-05-09T06:34:54.416Z,45.51
2023-05-09T06:38:52.799Z,45.51
2023-05-09T06:42:27.674Z,45.47
2023-05-09T06:45:49.960Z,45.45
2023-05-09T06:49:18.542Z,45.46
2023-05-09T06:53:03.429Z,46.07
2023-05-09T06:56:43.515Z,46.14
2023-05-09T06:59:27.471Z,46.04
2023-05-09T07:02:42.238Z,45.86
2023-05-09T07:06:23.509Z,45.70
2023-05-09T07:10:11.181Z,45.57
2023-05-09T07:14:01.620Z,45.59
2023-05-09T07:17:52.668Z,45.73
2023-05-09T07:21:42.226Z,45.86
2023-05-09T07:25:51.811Z,45.91
2023-05-09T07:30:01.306Z,45.90
2023-05-09T07:33:53.248Z,45.99
2023-05-09T07:37:52.805Z,46.10
2023-05-09T07:41:51.045Z,45.99
2023-05-09T07:46:00.628Z,45.87
2023-05-09T07:49:46.583Z,45.83
2023-05-09T07:53:08.657Z,45.71
2023-05-09T07:57:09.498Z,45.90
2023-05-09T08:00:46.545Z,46.08
2023-05-09T08:04:44.072Z,46.21
2023-05-09T08:08:34.470Z,46.42
2023-05-09T08:12:45.533Z,46.81
2023-05-09T08:16:55.134Z,46.93
2023-05-09T08:20:31.874Z,47.02
2023-05-09T08:23:53.294Z,47.29
2023-05-09T08:27:00.829Z,47.39
2023-05-09T08:30:33.985Z,47.31
2023-05-09T08:34:01.664Z,47.55
2023-05-09T08:37:54.439Z,47.73
2023-05-09T08:41:34.158Z,47.57
2023-05-09T08:44:43.807Z,47.59
2023-05-09T08:48:07.664Z,47.60
2023-05-09T08:51:38.351Z,47.65
2023-05-09T08:54:27.112Z,47.85
2023-05-09T08:57:16.424Z,47.70
2023-05-09T09:00:20.252Z,47.74
2023-05-09T09:04:00.454Z,47.76
2023-05-09T09:07:59.954Z,47.75
2023-05-09T09:11:30.911Z,47.75
2023-05-09T09:15:05.366Z,47.63
2023-05-09T09:19:03.988Z,47.46
2023-05-09T09:22:50.303Z,47.36
2023-05-09T09:26:22.642Z,47.24
2023-05-09T09:29:41.178Z,47.17
2023-05-09T09:32:40.348Z,47.12
2023-05-09T09:35:12.290Z,47.18
2023-05-09T09:39:02.289Z,46.89
2023-05-09T09:42:40.106Z,46.70
2023-05-09T09:46:19.966Z,46.57
2023-05-09T09:49:50.768Z,46.79
2023-05-09T09:53:43.673Z,46.60
2023-05-09T09:57:37.347Z,46.16
2023-05-09T10:00:56.034Z,46.27
2023-05-09T10:04:06.245Z,46.67
2023-05-09T10:07:33.207Z,46.78
2023-05-09T10:11:16.054Z,46.78
2023-05-09T10:14:07.140Z,46.74
2023-05-09T10:18:01.398Z,46.52
2023-05-09T10:21:02.851Z,46.24
2023-05-09T10:24:08.106Z,46.39
2023-05-09T10:27:46.627Z,46.68
2023-05-09T10:31:09.079Z,46.72
2023-05-09T10:35:18.550Z,46.46
2023-05-09T10:38:42.364Z,46.02
2023-05-09T10:42:42.361Z,45.86
2023-05-09T10:46:11.059Z,46.25
2023-05-09T10:49:53.235Z,46.26
2023-05-09T10:53:46.284Z,46.24
2023-05-09T10:57:54.705Z,45.76
2023-05-09T11:01:37.935Z,45.41
2023-05-09T11:05:29.728Z,45.19
2023-05-09T11:09:28.157Z,44.78
2023-05-09T11:13:19.446Z,44.58
2023-05-09T11:16:53.806Z,44.45
2023-05-09T11:20:10.879Z,44.40
2023-05-09T11:23:24.254Z,44.49
2023-05-09T11:26:46.578Z,43.99
2023-05-09T11:30:47.077Z,43.94
2023-05-09T11:33:56.384Z,43.77
2023-05-09T11:37:30.218Z,43.60
2023-05-09T11:40:43.875Z,43.45
2023-05-09T11:44:54.057Z,43.23
2023-05-09T11:48:43.629Z,43.71
2023-05-09T11:52:10.070Z,43.60
2023-05-09T11:56:03.134Z,43.49
2023-05-09T11:59:45.832Z,43.05
2023-05-09T12:03:45.723Z,43.18
2023-05-09T12:07:13.290Z,43.17
2023-05-09T12:10:06.503Z,42.78
2023-05-09T12:13:31.405Z,42.87
2023-05-09T12:17:08.963Z,42.54
2023-05-09T12:20:21.077Z,42.67
2023-05-09T12:24:01.763Z,42.90
2023-05-09T12:28:02.274Z,43.08
2023-05-09T12:31:35.419Z,43.18
2023-05-09T12:35:11.936Z,42.98
2023-05-09T12:38:34.544Z,42.78
2023-05-09T12:42:25.667Z,42.69
2023-05-09T12:46:36.880Z,42.30
2023-05-09T12:49:51.321Z,42.38
2023-05-09T12:53:22.041Z,42.27
2023-05-09T12:57:30.143Z,42.40
2023-05-09T13:00:45.479Z,42.73
2023-05-09T13:04:23.482Z,43.00
2023-05-09T13:07:48.525Z,42.90
2023-05-09T13:11:40.888Z,42.89
2023-05-09T13:15:50.626Z,42.20
2023-05-09T13:19:57.702Z,41.78
2023-05-09T13:23:28.628Z,41.85
2023-05-09T13:26:58.561Z,42.22
2023-05-09T13:30:14.835Z,42.90
2023-05-09T13:33:42.281Z,43.27
2023-05-09T13:37:20.987Z,43.17
2023-05-09T13:41:04.518Z,42.53
2023-05-09T13:44:09.423Z,42.27
2023-05-09T13:47:53.086Z,42.51
2023-05-09T13:51:56.747Z,42.04
2023-05-09T13:55:34.568Z,41.79
2023-05-09T13:58:57.387Z,41.96
2023-05-09T14:02:32.714Z,41.42
2023-05-09T14:06:04.218Z,41.19
2023-05-09T14:09:15.906Z,40.74
2023-05-09T14:13:11.231Z,40.62
2023-05-09T14:16:23.451Z,40.63
2023-05-09T14:19:03.384Z,40.36
2023-05-09T14:22:03.494Z,40.41
2023-05-09T14:25:08.196Z,40.12
2023-05-09T14:27:48.865Z,40.02
2023-05-09T14:30:52.292Z,40.60
2023-05-09T14:33:28.154Z,40.65
2023-05-09T14:36:02.986Z,40.02
2023-05-09T14:38:46.896Z,39.60
2023-05-09T14:41:23.458Z,39.27
2023-05-09T14:43:55.151Z,39.42
2023-05-09T14:46:55.762Z,38.67
2023-05-09T14:50:36.453Z,39.08
2023-05-09T14:54:04.693Z,38.35
2023-05-09T14:57:56.707Z,38.20
2023-05-09T15:01:10.584Z,37.69
2023-05-09T15:04:22.248Z,37.00
2023-05-09T15:08:25.081Z,36.64
2023-05-09T15:12:00.187Z,36.53
2023-05-09T15:15:13.250Z,36.04
2023-05-09T15:18:07.985Z,35.84
2023-05-09T15:21:28.829Z,35.25
2023-05-09T15:24:31.452Z,35.07
2023-05-09T15:27:57.160Z,35.02
2023-05-09T15:31:24.132Z,35.42
2023-05-09T15:34:12.684Z,35.78
2023-05-09T15:37:13.238Z,36.07
2023-05-09T15:40:10.514Z,36.35
2023-05-09T15:43:11.947Z,35.99
2023-05-09T15:46:45.781Z,36.10
2023-05-09T15:50:30.603Z,36.00
2023-05-09T15:53:50.352Z,35.94
2023-05-09T15:56:58.178Z,36.06
2023-05-09T16:00:30.697Z,37.04
2023-05-09T16:03:29.399Z,37.44
2023-05-09T16:06:27.800Z,37.51
2023-05-09T16:09:03.848Z,37.60
2023-05-09T16:11:51.868Z,38.31
2023-05-09T16:15:27.285Z,38.82
2023-05-09T16:19:14.323Z,39.09
2023-05-09T16:22:15.202Z,38.91
2023-05-09T16:25:30.939Z,38.69
2023-05-09T16:28:34.670Z,38.61
2023-05-09T16:31:30.603Z,38.62
2023-05-09T16:34:33.932Z,39.08
2023-05-09T16:37:19.089Z,39.33
2023-05-09T16:40:08.772Z,39.24
2023-05-09T16:43:27.662Z,38.96
2023-05-09T16:47:21.676Z,38.69
2023-05-09T16:50:21.769Z,38.63
2023-05-09T16:53:45.146Z,38.45
2023-05-09T16:57:29.623Z,38.71
2023-05-09T17:00:43.472Z,38.95
2023-05-09T17:04:43.359Z,39.19
2023-05-09T17:08:42.515Z,39.50
2023-05-09T17:12:19.625Z,39.56
2023-05-09T17:16:05.605Z,39.53
2023-05-09T17:19:14.067Z,39.55
2023-05-09T17:23:06.736Z,39.78
2023-05-09T17:27:01.384Z,40.01
2023-05-09T17:30:40.473Z,40.20
2023-05-09T17:34:09.082Z,39.97
2023-05-09T17:36:58.722Z,39.73
2023-05-09T17:40:41.565Z,39.57
2023-05-09T17:44:15.992Z,39.40
2023-05-09T17:47:14.299Z,39.64
2023-05-09T17:49:51.115Z,40.31
2023-05-09T17:52:19.847Z,40.55
2023-05-09T17:55:01.495Z,40.78
2023-05-09T17:57:44.044Z,41.05
2023-05-09T18:00:18.658Z,41.61
2023-05-09T18:03:05.472Z,42.20
2023-05-09T18:06:13.522Z,42.66
2023-05-09T18:09:12.932Z,42.81
2023-05-09T18:11:59.162Z,42.82
2023-05-09T18:15:03.379Z,42.87
2023-05-09T18:17:59.457Z,43.07
2023-05-09T18:20:59.624Z,43.49
2023-05-09T18:23:56.345Z,44.43
2023-05-09T18:26:35.431Z,44.98
2023-05-09T18:29:24.353Z,45.57
2023-05-09T18:32:02.102Z,46.00
2023-05-09T18:35:07.424Z,46.63
2023-05-09T18:37:42.185Z,46.58
2023-05-09T18:40:17.057Z,46.66
2023-05-09T18:43:18.268Z,46.98
2023-05-09T18:46:47.696Z,47.19
2023-05-09T18:49:26.392Z,47.69
2023-05-09T18:52:53.922Z,48.43
2023-05-09T18:56:39.064Z,48.80
2023-05-09T18:59:13.770Z,49.41
2023-05-09T19:01:51.839Z,50.21
2023-05-09T19:05:03.148Z,50.58
2023-05-09T19:08:16.306Z,50.74
2023-05-09T19:11:01.655Z,51.22
2023-05-09T19:14:01.030Z,51.66
2023-05-09T19:17:45.319Z,51.83
2023-05-09T19:21:38.421Z,51.87
2023-05-09T19:24:52.657Z,52.33
2023-05-09T19:28:19.020Z,52.75
2023-05-09T19:31:39.676Z,53.15
2023-05-09T19:35:30.731Z,53.16
2023-05-09T19:39:12.435Z,53.42
2023-05-09T19:43:22.241Z,53.37
2023-05-09T19:46:06.074Z,53.41
2023-05-09T19:49:30.388Z,53.70
2023-05-09T19:52:40.169Z,53.77
2023-05-09T19:55:13.685Z,54.52
2023-05-09T19:58:18.086Z,54.79
2023-05-09T20:01:42.904Z,54.86
2023-05-09T20:04:42.601Z,54.99
2023-05-09T20:08:29.772Z,55.28
2023-05-09T20:12:21.258Z,55.45
2023-05-09T20:16:09.350Z,55.57
2023-05-09T20:19:06.491Z,55.80
2023-05-09T20:22:04.426Z,55.93
2023-05-09T20:25:13.123Z,56.22
2023-05-09T20:28:22.262Z,56.36
2023-05-09T20:31:49.267Z,56.80
2023-05-09T20:35:11.084Z,57.07
2023-05-09T20:39:13.297Z,57.28
2023-05-09T20:42:57.566Z,57.30
2023-05-09T20:46:34.853Z,58.31
2023-05-09T20:50:26.491Z,58.63
2023-05-09T20:54:17.709Z,59.05
2023-05-09T20:58:27.522Z,59.60
2023-05-09T21:02:11.771Z,60.23
2023-05-09T21:06:21.191Z,60.39
2023-05-09T21:10:06.542Z,59.94
2023-05-09T21:14:16.210Z,59.40
2023-05-09T21:18:16.780Z,59.28
2023-05-09T21:21:02.924Z,59.19
2023-05-09T21:24:31.154Z,59.07
2023-05-09T21:28:30.839Z,59.10
2023-05-09T21:32:40.501Z,59.06
2023-05-09T21:36:25.186Z,58.14
2023-05-09T21:40:10.002Z,57.86
2023-05-09T21:43:54.817Z,57.75
2023-05-09T21:47:38.853Z,57.55
2023-05-09T21:51:30.981Z,57.47
2023-05-09T21:55:40.526Z,56.88
2023-05-09T21:59:41.268Z,56.44
2023-05-09T22:03:34.095Z,56.01
2023-05-09T22:07:23.705Z,56.15
2023-05-09T22:11:33.195Z,54.98
2023-05-09T22:15:42.624Z,54.01
2023-05-09T22:19:52.194Z,53.07
2023-05-09T22:23:26.311Z,52.21
2023-05-09T22:27:10.795Z,51.12
2023-05-09T22:31:20.368Z,50.63
2023-05-09T22:35:30.116Z,49.43
2023-05-09T22:39:14.706Z,49.02
2023-05-09T22:43:24.280Z,48.66
2023-05-09T22:46:59.789Z,48.41
2023-05-09T22:50:31.626Z,47.65
2023-05-09T22:54:15.017Z,47.46
2023-05-09T22:58:23.331Z,47.44
2023-05-09T23:02:18.194Z,46.99
2023-05-09T23:06:07.553Z,46.73
2023-05-09T23:09:51.177Z,46.18
2023-05-09T23:13:59.763Z,45.96
2023-05-09T23:17:59.068Z,45.73
2023-05-09T23:22:09.012Z,45.64
2023-05-09T23:25:51.594Z,45.51
2023-05-09T23:29:25.208Z,45.01
2023-05-09T23:33:34.849Z,44.81
2023-05-09T23:37:44.140Z,44.69
2023-05-09T23:41:53.719Z,44.51
2023-05-09T23:45:56.323Z,44.32
2023-05-09T23:49:47.611Z,44.26
2023-05-09T23:53:57.206Z,44.17
2023-05-09T23:57:59.506Z,44.07
